Time;durP1;ratioP1;P1;durP2;ratioP2;P2;SDS_P1;SDS_P2;PMS_P1;PMS_P2;Temp;Humidity;BMP_temperature;BMP_pressure;BME280_temperature;BME280_humidity;BME280_pressure;Samples;Min_cycle;Max_cycle;Signal;HPM_P1;HPM_P2
2021/11/13 00:02:24;;;;;;;0.90;0.50;;;;;;;;;;4937713;29;20154;-75
2021/11/13 00:04:49;;;;;;;1.00;0.40;;;;;;;;;;4954370;29;20138;-73
2021/11/13 00:07:36;;;;;;;1.33;0.30;;;;;;;;;;4953901;29;20493;-74
2021/11/13 00:10:01;;;;;;;2.45;0.47;;;;;;;;;;4953602;29;20023;-72
2021/11/13 00:12:26;;;;;;;2.30;0.40;;;;;;;;;;4953840;29;20023;-75
2021/11/13 00:14:52;;;;;;;2.57;0.47;;;;;;;;;;4988870;28;20461;-74
2021/11/13 00:17:17;;;;;;;0.90;0.20;;;;;;;;;;5013986;28;20265;-73
2021/11/13 00:19:42;;;;;;;1.55;0.50;;;;;;;;;;5013906;28;20018;-75
2021/11/13 00:22:17;;;;;;;1.20;0.30;;;;;;;;;;5013916;28;20032;-73
2021/11/13 00:24:52;;;;;;;1.98;0.40;;;;;;;;;;5013949;28;20026;-75
2021/11/13 00:27:27;;;;;;;1.25;0.32;;;;;;;;;;5012631;28;20029;-73
2021/11/13 00:29:54;;;;;;;1.98;0.50;;;;;;;;;;5013823;28;20025;-74
2021/11/13 00:32:28;;;;;;;0.88;0.25;;;;;;;;;;5019347;28;20070;-75
2021/11/13 00:35:01;;;;;;;;;;;;;;;;;;5029440;28;20117;-74
2021/11/13 00:37:37;;;;;;;1.67;0.50;;;;;;;;;;5029030;28;20304;-74
2021/11/13 00:40:13;;;;;;;1.30;0.60;;;;;;;;;;5013653;28;20100;-73
2021/11/13 00:42:39;;;;;;;2.83;0.60;;;;;;;;;;5013738;28;20018;-74
2021/11/13 00:45:05;;;;;;;0.90;0.30;;;;;;;;;;5013586;28;20033;-73
2021/11/13 00:47:50;;;;;;;1.10;0.30;;;;;;;;;;5015196;28;20013;-75
2021/11/13 00:50:25;;;;;;;1.15;0.30;;;;;;;;;;5016937;28;20108;-72
2021/11/13 00:52:52;;;;;;;;;;;;;;;;;;5016231;28;20075;-76
2021/11/13 00:55:23;;;;;;;1.17;0.15;;;;;;;;;;5032379;28;19912;-73
2021/11/13 00:57:59;;;;;;;1.48;0.40;;;;;;;;;;5017081;28;20018;-74
2021/11/13 01:00:33;;;;;;;1.23;0.28;;;;;;;;;;5015707;28;20113;-73
2021/11/13 01:03:00;;;;;;;1.83;0.30;;;;;;;;;;5015574;28;20117;-74
2021/11/13 01:05:25;;;;;;;0.70;0.22;;;;;;;;;;5016880;28;20045;-75
2021/11/13 01:07:51;;;;;;;1.17;0.52;;;;;;;;;;5016642;28;20063;-71
2021/11/13 01:10:35;;;;;;;1.30;0.20;;;;;;;;;;5015694;28;20384;-75
2021/11/13 01:13:34;;;;;;;0.60;0.22;;;;;;;;;;5016722;28;20080;-72
2021/11/13 01:16:00;;;;;;;0.95;0.65;;;;;;;;;;4975575;28;20189;-74
2021/11/13 01:18:47;;;;;;;1.77;0.20;;;;;;;;;;4975542;28;20027;-73
2021/11/13 01:21:22;;;;;;;1.30;0.20;;;;;;;;;;4975601;28;20513;-74
2021/11/13 01:24:17;;;;;;;0.20;0.20;;;;;;;;;;4975498;28;20521;-74
2021/11/13 01:26:42;;;;;;;0.70;0.30;;;;;;;;;;4959169;28;20039;-74
2021/11/13 01:32:10;;;;;;;1.95;0.28;;;;;;;;;;4975605;28;20971;-73
2021/11/13 01:34:39;;;;;;;1.67;0.57;;;;;;;;;;4975292;28;20015;-74
2021/11/13 01:37:16;;;;;;;0.68;0.20;;;;;;;;;;4975260;28;20049;-73
2021/11/13 01:42:46;;;;;;;1.13;0.22;;;;;;;;;;4975353;28;20054;-73
2021/11/13 01:45:18;;;;;;;0.63;0.38;;;;;;;;;;4975269;28;20035;-76
2021/11/13 01:47:56;;;;;;;1.80;0.30;;;;;;;;;;4975106;28;20379;-74
2021/11/13 01:50:25;;;;;;;0.77;0.35;;;;;;;;;;4975035;28;20035;-74
2021/11/13 01:52:50;;;;;;;0.88;0.32;;;;;;;;;;5016018;28;20149;-74
2021/11/13 01:55:42;;;;;;;1.27;0.30;;;;;;;;;;5035637;28;20054;-73
2021/11/13 01:58:22;;;;;;;1.50;0.30;;;;;;;;;;5015292;28;20022;-74
2021/11/13 02:00:52;;;;;;;0.50;0.20;;;;;;;;;;5030979;28;20029;-73
2021/11/13 02:03:19;;;;;;;1.92;0.40;;;;;;;;;;5015500;28;20088;-75
2021/11/13 02:05:46;;;;;;;2.90;0.77;;;;;;;;;;5035482;28;20124;-73
2021/11/13 02:08:21;;;;;;;0.90;0.20;;;;;;;;;;5035399;28;20014;-75
2021/11/13 02:10:47;;;;;;;1.48;0.55;;;;;;;;;;5035489;28;20071;-73
2021/11/13 02:13:13;;;;;;;1.33;0.40;;;;;;;;;;5035482;28;20049;-74
2021/11/13 02:15:39;;;;;;;1.15;0.30;;;;;;;;;;5035272;28;20088;-75
2021/11/13 02:18:06;;;;;;;1.08;0.22;;;;;;;;;;5033953;28;20022;-72
2021/11/13 02:20:43;;;;;;;0.70;0.30;;;;;;;;;;5035299;28;20027;-75
2021/11/13 02:23:34;;;;;;;0.60;0.40;;;;;;;;;;5035096;28;20017;-73
2021/11/13 02:26:01;;;;;;;1.30;0.22;;;;;;;;;;4958067;29;20062;-76
2021/11/13 02:28:54;;;;;;;1.05;0.20;;;;;;;;;;4955114;29;20031;-73
2021/11/13 02:31:48;;;;;;;0.55;0.22;;;;;;;;;;4954870;29;20038;-75
2021/11/13 02:34:40;;;;;;;1.83;0.43;;;;;;;;;;4954899;29;20023;-73
2021/11/13 02:37:06;;;;;;;0.95;0.40;;;;;;;;;;4954801;29;20090;-74
2021/11/13 02:39:32;;;;;;;0.38;0.10;;;;;;;;;;4954818;29;20035;-73
2021/11/13 02:42:13;;;;;;;0.65;0.13;;;;;;;;;;4954737;29;20394;-76
2021/11/13 02:44:59;;;;;;;1.33;0.28;;;;;;;;;;4938688;29;20035;-72
2021/11/13 02:47:43;;;;;;;1.55;0.20;;;;;;;;;;4954527;29;20070;-75
2021/11/13 02:50:37;;;;;;;1.05;0.20;;;;;;;;;;4954563;29;20074;-74
2021/11/13 02:53:04;;;;;;;0.95;0.28;;;;;;;;;;4938297;29;20112;-74
2021/11/13 02:55:54;;;;;;;0.70;0.13;;;;;;;;;;4959590;29;20038;-73
2021/11/13 02:58:45;;;;;;;1.00;0.20;;;;;;;;;;4938291;29;20067;-73
2021/11/13 03:01:24;;;;;;;0.85;0.17;;;;;;;;;;4954394;29;20446;-75
2021/11/13 03:03:51;;;;;;;1.30;0.30;;;;;;;;;;5016167;28;20136;-74
2021/11/13 03:06:17;;;;;;;2.83;0.75;;;;;;;;;;5014793;28;20049;-76
2021/11/13 03:08:54;;;;;;;0.75;0.20;;;;;;;;;;5014632;28;20029;-73
2021/11/13 03:17:38;;;;;;;0.50;0.10;;;;;;;;;;5014876;28;20048;-74
2021/11/13 03:23:07;;;;;;;1.40;0.47;;;;;;;;;;5014642;28;20052;-72
2021/11/13 03:26:06;;;;;;;2.05;0.50;;;;;;;;;;5014478;28;20017;-74
2021/11/13 03:28:35;;;;;;;0.60;0.25;;;;;;;;;;4973133;28;20085;-73
2021/11/13 03:31:08;;;;;;;0.68;0.32;;;;;;;;;;4976319;28;20043;-76
2021/11/13 03:33:43;;;;;;;0.15;0.10;;;;;;;;;;4973238;28;20114;-73
2021/11/13 03:36:42;;;;;;;0.75;0.30;;;;;;;;;;4973225;28;20041;-76
2021/11/13 03:39:41;;;;;;;0.85;0.10;;;;;;;;;;4973239;28;20042;-74
2021/11/13 03:42:46;;;;;;;1.52;0.20;;;;;;;;;;4973220;28;20065;-74
2021/11/13 03:45:31;;;;;;;1.67;0.30;;;;;;;;;;4973304;28;20077;-74
2021/11/13 03:48:07;;;;;;;1.23;0.20;;;;;;;;;;4973013;28;20077;-73
2021/11/13 03:51:03;;;;;;;0.90;0.13;;;;;;;;;;4973159;28;20051;-75
2021/11/13 03:53:30;;;;;;;1.25;0.50;;;;;;;;;;4915591;29;20068;-75
2021/11/13 03:56:04;;;;;;;1.27;0.20;;;;;;;;;;4915616;29;20383;-74
2021/11/13 03:58:31;;;;;;;1.05;0.20;;;;;;;;;;4915722;29;20048;-74
2021/11/13 04:01:16;;;;;;;2.05;0.32;;;;;;;;;;4923066;29;20032;-75
2021/11/13 04:03:42;;;;;;;0.73;0.20;;;;;;;;;;4927751;29;20034;-74
2021/11/13 04:06:07;;;;;;;1.00;0.35;;;;;;;;;;4953617;29;20443;-76
2021/11/13 04:08:33;;;;;;;0.60;0.28;;;;;;;;;;4937607;29;20031;-73
2021/11/13 04:14:01;;;;;;;0.50;0.17;;;;;;;;;;4953851;29;20026;-72
2021/11/13 04:16:37;;;;;;;0.22;0.10;;;;;;;;;;4953630;29;20027;-75
2021/11/13 04:19:10;;;;;;;0.20;0.00;;;;;;;;;;4953537;29;20024;-73
2021/11/13 04:21:44;;;;;;;0.50;0.20;;;;;;;;;;4955229;28;20026;-75
2021/11/13 04:24:10;;;;;;;0.63;0.10;;;;;;;;;;4957165;29;20031;-74
2021/11/13 04:26:52;;;;;;;1.50;0.20;;;;;;;;;;4957273;29;20055;-72
2021/11/13 04:29:28;;;;;;;1.35;0.32;;;;;;;;;;4975421;28;20033;-75
2021/11/13 04:31:54;;;;;;;1.77;0.40;;;;;;;;;;5016247;28;20049;-72
2021/11/13 04:34:24;;;;;;;0.98;0.20;;;;;;;;;;5017670;28;20046;-75
2021/11/13 04:36:52;;;;;;;1.35;0.28;;;;;;;;;;5032625;28;20057;-74
2021/11/13 04:39:26;;;;;;;0.40;0.22;;;;;;;;;;5016117;28;20377;-73
2021/11/13 04:41:53;;;;;;;0.52;0.35;;;;;;;;;;5017260;28;20014;-75
2021/11/13 04:44:20;;;;;;;0.70;0.15;;;;;;;;;;5017239;28;20026;-72
2021/11/13 04:46:57;;;;;;;0.47;0.20;;;;;;;;;;5017157;28;20021;-75
2021/11/13 04:49:24;;;;;;;2.38;0.30;;;;;;;;;;5015770;28;20022;-72
2021/11/13 04:51:49;;;;;;;0.50;0.10;;;;;;;;;;5015857;28;20014;-75
2021/11/13 04:54:16;;;;;;;1.00;0.30;;;;;;;;;;5015937;28;20013;-74
2021/11/13 04:56:58;;;;;;;1.55;0.30;;;;;;;;;;5017112;28;20737;-74
2021/11/13 04:59:25;;;;;;;1.10;0.28;;;;;;;;;;5022645;28;20116;-75
2021/11/13 05:01:52;;;;;;;1.08;0.20;;;;;;;;;;5016906;28;20033;-73
2021/11/13 05:04:28;;;;;;;1.05;0.20;;;;;;;;;;5016299;28;20045;-75
2021/11/13 05:06:53;;;;;;;1.15;0.22;;;;;;;;;;5031996;28;20037;-73
2021/11/13 05:09:25;;;;;;;1.15;0.20;;;;;;;;;;5015892;28;20018;-73
2021/11/13 05:11:50;;;;;;;1.55;0.30;;;;;;;;;;5031856;28;20393;-73
2021/11/13 05:14:28;;;;;;;1.33;0.22;;;;;;;;;;5016918;28;20018;-72
2021/11/13 05:17:21;;;;;;;1.95;0.47;;;;;;;;;;5016610;28;20498;-73
2021/11/13 05:22:57;;;;;;;1.98;0.17;;;;;;;;;;5016853;28;20041;-72
2021/11/13 05:25:22;;;;;;;2.40;0.47;;;;;;;;;;5021394;28;20057;-74
2021/11/13 05:27:59;;;;;;;1.55;0.28;;;;;;;;;;5016739;28;20029;-73
2021/11/13 05:30:34;;;;;;;1.55;0.20;;;;;;;;;;5016251;28;20034;-72
2021/11/13 05:33:32;;;;;;;1.92;0.32;;;;;;;;;;5015356;28;20033;-73
2021/11/13 05:36:26;;;;;;;1.17;0.30;;;;;;;;;;5016490;28;20425;-73
2021/11/13 05:39:00;;;;;;;0.85;0.20;;;;;;;;;;4975117;28;20030;-71
2021/11/13 05:44:42;;;;;;;0.68;0.45;;;;;;;;;;4975391;28;20073;-72
2021/11/13 05:47:19;;;;;;;3.33;0.52;;;;;;;;;;4974940;28;20107;-74
2021/11/13 05:49:46;;;;;;;1.20;0.20;;;;;;;;;;4974852;28;20031;-71
2021/11/13 05:52:19;;;;;;;0.93;0.20;;;;;;;;;;4974988;28;20046;-73
2021/11/13 05:54:53;;;;;;;1.25;0.50;;;;;;;;;;4974904;28;20423;-72
2021/11/13 05:57:19;;;;;;;0.70;0.20;;;;;;;;;;4975048;28;20023;-74
2021/11/13 05:59:46;;;;;;;0.50;0.17;;;;;;;;;;4976123;28;20114;-72
2021/11/13 06:02:21;;;;;;;0.77;0.35;;;;;;;;;;4974796;28;20538;-72
2021/11/13 06:04:52;;;;;;;3.47;0.20;;;;;;;;;;4974136;28;20030;-73
2021/11/13 06:07:17;;;;;;;0.60;0.20;;;;;;;;;;4974771;28;20046;-72
2021/11/13 06:09:54;;;;;;;2.30;0.30;;;;;;;;;;4974456;28;20038;-73
2021/11/13 06:12:32;;;;;;;1.58;0.35;;;;;;;;;;4958766;28;20142;-70
2021/11/13 06:14:57;;;;;;;1.00;0.20;;;;;;;;;;4982501;28;20053;-73
2021/11/13 06:17:23;;;;;;;2.00;0.38;;;;;;;;;;4995964;28;20094;-72
2021/11/13 06:19:49;;;;;;;1.25;0.30;;;;;;;;;;4994476;28;20055;-72
2021/11/13 06:22:24;;;;;;;1.00;0.15;;;;;;;;;;4996024;28;20022;-73
2021/11/13 06:24:50;;;;;;;0.30;0.10;;;;;;;;;;4994496;28;20026;-71
2021/11/13 06:27:16;;;;;;;1.98;0.20;;;;;;;;;;4995829;28;20018;-73
2021/11/13 06:29:42;;;;;;;0.88;0.20;;;;;;;;;;4995907;28;20355;-72
2021/11/13 06:32:19;;;;;;;1.20;0.40;;;;;;;;;;4995736;28;20025;-71
2021/11/13 06:34:46;;;;;;;2.17;0.20;;;;;;;;;;4994674;28;20030;-73
2021/11/13 06:37:13;;;;;;;2.05;0.20;;;;;;;;;;4995512;28;20018;-71
2021/11/13 06:39:48;;;;;;;2.45;0.40;;;;;;;;;;4995612;28;20174;-72
2021/11/13 06:42:16;;;;;;;0.77;0.10;;;;;;;;;;4995440;28;20026;-71
2021/11/13 06:44:42;;;;;;;1.13;0.47;;;;;;;;;;4995296;28;20334;-72
2021/11/13 06:47:18;;;;;;;1.02;0.10;;;;;;;;;;4995417;28;20528;-73
2021/11/13 06:49:43;;;;;;;1.98;0.20;;;;;;;;;;4995388;28;20022;-71
2021/11/13 06:52:10;;;;;;;0.43;0.10;;;;;;;;;;4995286;28;20049;-73
2021/11/13 06:54:36;;;;;;;0.85;0.20;;;;;;;;;;4995402;28;20517;-72
2021/11/13 06:57:01;;;;;;;1.42;0.30;;;;;;;;;;4995192;28;20097;-73
2021/11/13 06:59:29;;;;;;;1.42;0.35;;;;;;;;;;4996360;28;20053;-72
2021/11/13 07:02:03;;;;;;;1.38;0.20;;;;;;;;;;4995140;28;20046;-71
2021/11/13 07:04:30;;;;;;;0.57;0.10;;;;;;;;;;4995329;28;20061;-73
2021/11/13 07:06:55;;;;;;;1.15;0.50;;;;;;;;;;5027134;28;20381;-72
2021/11/13 07:09:30;;;;;;;0.70;0.13;;;;;;;;;;5014600;28;20048;-72
2021/11/13 07:11:58;;;;;;;3.22;0.38;;;;;;;;;;5029648;28;20260;-73
2021/11/13 07:14:23;;;;;;;1.30;0.30;;;;;;;;;;5014665;28;20469;-70
2021/11/13 07:16:49;;;;;;;2.45;0.77;;;;;;;;;;5014498;28;20029;-73
2021/11/13 07:19:26;;;;;;;2.83;0.43;;;;;;;;;;5014518;28;20063;-73
2021/11/13 07:21:53;;;;;;;1.30;0.10;;;;;;;;;;5014534;28;20024;-72
2021/11/13 07:24:31;;;;;;;2.17;0.28;;;;;;;;;;5014968;28;20037;-72
2021/11/13 07:27:08;;;;;;;1.15;0.10;;;;;;;;;;5015584;28;20018;-71
2021/11/13 07:29:47;;;;;;;1.30;0.28;;;;;;;;;;5014406;28;20050;-73
2021/11/13 07:32:50;;;;;;;0.70;0.10;;;;;;;;;;5013175;28;20022;-71
2021/11/13 07:35:17;;;;;;;0.57;0.15;;;;;;;;;;5013312;28;20032;-72
2021/11/13 07:37:42;;;;;;;1.27;0.30;;;;;;;;;;5014363;28;20050;-71
2021/11/13 07:40:09;;;;;;;1.27;0.30;;;;;;;;;;5033790;28;20416;-73
2021/11/13 07:42:40;;;;;;;1.65;0.43;;;;;;;;;;5032875;28;20018;-71
2021/11/13 07:45:07;;;;;;;1.75;0.35;;;;;;;;;;5033915;28;20033;-73
2021/11/13 07:47:32;;;;;;;5.15;0.30;;;;;;;;;;5034015;28;20104;-72
2021/11/13 07:50:06;;;;;;;3.30;0.22;;;;;;;;;;5033811;28;20104;-72
2021/11/13 07:52:34;;;;;;;0.75;0.17;;;;;;;;;;5034056;28;20036;-73
2021/11/13 07:54:59;;;;;;;0.77;0.17;;;;;;;;;;5033965;28;20026;-71
2021/11/13 07:57:25;;;;;;;1.33;0.30;;;;;;;;;;5037292;28;20013;-72
2021/11/13 08:00:07;;;;;;;0.38;0.03;;;;;;;;;;5037967;28;20320;-73
2021/11/13 08:02:40;;;;;;;1.85;0.40;;;;;;;;;;5038026;28;20711;-72
2021/11/13 08:05:10;;;;;;;0.90;0.25;;;;;;;;;;5037289;28;20441;-73
2021/11/13 08:07:35;;;;;;;1.25;0.20;;;;;;;;;;5037770;28;20116;-71
2021/11/13 08:10:03;;;;;;;2.22;0.55;;;;;;;;;;5036276;28;20117;-73
2021/11/13 08:12:30;;;;;;;1.48;0.20;;;;;;;;;;5036326;28;20022;-72
2021/11/13 08:15:08;;;;;;;1.75;0.40;;;;;;;;;;5037562;28;20057;-71
2021/11/13 08:17:35;;;;;;;1.58;0.50;;;;;;;;;;5037650;28;20045;-72
2021/11/13 08:20:03;;;;;;;0.50;0.10;;;;;;;;;;5037583;28;20480;-71
2021/11/13 08:22:36;;;;;;;0.60;0.20;;;;;;;;;;5036192;28;20476;-73
2021/11/13 08:25:03;;;;;;;0.85;0.15;;;;;;;;;;5037401;28;20030;-72
2021/11/13 08:27:28;;;;;;;2.67;0.30;;;;;;;;;;5039555;28;20018;-72
2021/11/13 08:29:55;;;;;;;1.40;0.10;;;;;;;;;;5037311;28;20021;-73
2021/11/13 08:32:22;;;;;;;0.98;0.20;;;;;;;;;;5037176;28;20026;-70
2021/11/13 08:35:15;;;;;;;1.92;0.40;;;;;;;;;;5037194;28;20025;-72
2021/11/13 08:37:46;;;;;;;1.65;0.25;;;;;;;;;;5035939;28;20052;-70
2021/11/13 08:40:12;;;;;;;2.10;0.40;;;;;;;;;;5017351;28;20030;-72
2021/11/13 08:42:47;;;;;;;1.98;0.40;;;;;;;;;;5017219;28;20018;-72
2021/11/13 08:45:17;;;;;;;2.17;0.40;;;;;;;;;;5017455;28;20018;-71
2021/11/13 08:47:53;;;;;;;1.58;0.28;;;;;;;;;;5017231;28;20026;-71
2021/11/13 08:50:30;;;;;;;0.32;0.00;;;;;;;;;;5017068;28;20050;-71
2021/11/13 08:52:58;;;;;;;0.68;0.20;;;;;;;;;;5017039;28;20026;-73
2021/11/13 08:55:30;;;;;;;1.33;0.20;;;;;;;;;;5018094;28;20026;-71
2021/11/13 08:58:32;;;;;;;0.95;0.17;;;;;;;;;;5016940;28;20022;-72
2021/11/13 09:01:00;;;;;;;1.55;0.20;;;;;;;;;;5016917;28;20045;-71
2021/11/13 09:03:42;;;;;;;3.03;0.35;;;;;;;;;;5017065;28;20105;-72
2021/11/13 09:06:13;;;;;;;0.22;0.10;;;;;;;;;;5018185;28;20384;-71
2021/11/13 09:08:39;;;;;;;0.85;0.10;;;;;;;;;;5036455;28;20072;-73
2021/11/13 09:11:19;;;;;;;1.40;0.28;;;;;;;;;;5036330;28;20028;-71
2021/11/13 09:13:54;;;;;;;2.42;0.20;;;;;;;;;;5036894;28;20024;-72
2021/11/13 09:16:32;;;;;;;1.58;0.10;;;;;;;;;;5036487;28;20022;-72
2021/11/13 09:19:10;;;;;;;1.30;0.20;;;;;;;;;;5018873;28;20396;-71
2021/11/13 09:21:36;;;;;;;1.50;0.22;;;;;;;;;;5019610;28;20021;-73
2021/11/13 09:24:03;;;;;;;1.77;0.25;;;;;;;;;;5036392;28;20372;-71
2021/11/13 09:26:29;;;;;;;0.57;0.25;;;;;;;;;;5036482;28;20021;-72
2021/11/13 09:28:56;;;;;;;1.02;0.13;;;;;;;;;;5018281;28;20017;-72
2021/11/13 09:31:27;;;;;;;1.55;0.28;;;;;;;;;;5044686;28;20029;-71
2021/11/13 09:33:53;;;;;;;0.90;0.10;;;;;;;;;;5056032;28;20111;-73
2021/11/13 09:36:25;;;;;;;1.63;0.28;;;;;;;;;;5055982;28;20091;-71
2021/11/13 09:39:00;;;;;;;1.75;0.25;;;;;;;;;;5038340;28;20024;-72
2021/11/13 09:41:27;;;;;;;0.73;0.20;;;;;;;;;;5038074;28;20063;-72
2021/11/13 09:44:02;;;;;;;2.65;0.30;;;;;;;;;;5055749;28;20036;-70
2021/11/13 09:46:28;;;;;;;1.05;0.30;;;;;;;;;;5056430;28;20025;-73
2021/11/13 09:48:54;;;;;;;1.75;0.63;;;;;;;;;;5056090;28;20031;-71
2021/11/13 09:51:26;;;;;;;1.00;0.22;;;;;;;;;;5055642;28;20021;-72
2021/11/13 09:53:54;;;;;;;1.50;0.10;;;;;;;;;;5037760;28;20013;-72
2021/11/13 09:56:26;;;;;;;1.05;0.17;;;;;;;;;;5055595;28;20380;-70
2021/11/13 09:59:04;;;;;;;0.68;0.20;;;;;;;;;;5055518;28;20013;-73
2021/11/13 10:01:31;;;;;;;2.20;0.25;;;;;;;;;;5037619;28;20021;-71
2021/11/13 10:04:11;;;;;;;0.95;0.10;;;;;;;;;;5055445;28;20376;-72
2021/11/13 10:06:37;;;;;;;1.77;0.22;;;;;;;;;;5035071;28;20107;-71
2021/11/13 10:09:02;;;;;;;1.27;0.30;;;;;;;;;;5055284;28;20464;-72
2021/11/13 10:11:44;;;;;;;0.10;0.10;;;;;;;;;;5055359;28;20511;-72
2021/11/13 10:14:11;;;;;;;0.95;0.20;;;;;;;;;;5055153;28;20397;-71
2021/11/13 10:16:42;;;;;;;2.10;0.35;;;;;;;;;;5038719;28;20025;-73
2021/11/13 10:19:09;;;;;;;0.30;0.10;;;;;;;;;;5054622;28;20009;-71
2021/11/13 10:21:37;;;;;;;1.45;0.30;;;;;;;;;;5055062;28;20021;-72
2021/11/13 10:24:04;;;;;;;2.28;0.40;;;;;;;;;;5055106;28;20025;-72
2021/11/13 10:26:38;;;;;;;1.50;0.30;;;;;;;;;;5037480;28;20104;-70
2021/11/13 10:29:28;;;;;;;1.55;0.20;;;;;;;;;;5054989;28;20055;-73
2021/11/13 10:31:55;;;;;;;1.10;0.10;;;;;;;;;;4954666;29;20023;-70
2021/11/13 10:34:34;;;;;;;1.80;0.20;;;;;;;;;;4938789;29;20035;-72
2021/11/13 10:37:05;;;;;;;0.45;0.05;;;;;;;;;;4954717;29;20031;-71
2021/11/13 10:39:43;;;;;;;1.33;0.10;;;;;;;;;;4954933;29;20102;-72
2021/11/13 10:42:14;;;;;;;0.73;0.20;;;;;;;;;;4954682;29;20051;-72
2021/11/13 10:45:18;;;;;;;1.20;0.30;;;;;;;;;;4954529;29;20058;-71
2021/11/13 10:47:51;;;;;;;1.48;0.10;;;;;;;;;;4954673;29;20086;-71
2021/11/13 10:50:40;;;;;;;0.93;0.15;;;;;;;;;;4954379;29;20031;-72
2021/11/13 10:53:09;;;;;;;0.38;0.10;;;;;;;;;;4938368;29;20020;-72
2021/11/13 10:56:09;;;;;;;1.17;0.30;;;;;;;;;;4954583;29;20846;-71
2021/11/13 10:58:37;;;;;;;1.77;0.25;;;;;;;;;;4954460;29;20081;-71
2021/11/13 11:01:09;;;;;;;1.30;0.20;;;;;;;;;;4954285;29;20413;-72
2021/11/13 11:03:40;;;;;;;1.75;0.30;;;;;;;;;;4938238;29;20434;-72
2021/11/13 11:06:20;;;;;;;1.85;0.10;;;;;;;;;;4954204;29;20408;-70
2021/11/13 11:08:45;;;;;;;1.02;0.13;;;;;;;;;;4998389;28;20052;-72
2021/11/13 11:11:24;;;;;;;1.45;0.22;;;;;;;;;;5054105;28;20017;-71
2021/11/13 11:13:52;;;;;;;1.63;0.40;;;;;;;;;;5054151;28;20048;-72
2021/11/13 11:16:28;;;;;;;1.05;0.30;;;;;;;;;;5036326;28;20020;-72
2021/11/13 11:19:03;;;;;;;2.10;0.20;;;;;;;;;;5054053;28;20017;-71
2021/11/13 11:21:49;;;;;;;1.85;0.35;;;;;;;;;;5036342;28;20056;-72
2021/11/13 11:24:21;;;;;;;1.40;0.30;;;;;;;;;;5054119;28;20032;-71
2021/11/13 11:27:17;;;;;;;2.47;0.20;;;;;;;;;;5053971;28;20021;-72
2021/11/13 11:32:47;;;;;;;1.85;0.22;;;;;;;;;;4953785;29;20046;-71
2021/11/13 11:35:43;;;;;;;1.67;0.10;;;;;;;;;;4953982;29;20028;-72
2021/11/13 11:38:17;;;;;;;0.40;0.17;;;;;;;;;;4953834;29;20031;-71
2021/11/13 11:40:55;;;;;;;1.30;0.20;;;;;;;;;;4953844;29;20039;-73
2021/11/13 11:43:21;;;;;;;1.95;0.20;;;;;;;;;;4953864;29;20035;-72
2021/11/13 11:48:57;;;;;;;0.60;0.10;;;;;;;;;;4953672;29;20038;-72
2021/11/13 11:51:24;;;;;;;1.50;0.43;;;;;;;;;;4953794;29;20035;-72
2021/11/13 11:53:51;;;;;;;0.68;0.20;;;;;;;;;;4953898;29;20364;-72
2021/11/13 11:56:28;;;;;;;0.77;0.22;;;;;;;;;;4953699;29;20027;-71
2021/11/13 11:58:56;;;;;;;0.70;0.32;;;;;;;;;;4953602;29;20042;-73
2021/11/13 12:01:25;;;;;;;1.25;0.25;;;;;;;;;;4953639;29;20031;-71
2021/11/13 12:04:18;;;;;;;1.30;0.30;;;;;;;;;;4953582;29;20054;-72
2021/11/13 12:06:46;;;;;;;0.82;0.20;;;;;;;;;;4980870;28;20030;-70
2021/11/13 12:09:11;;;;;;;0.40;0.20;;;;;;;;;;5011856;28;20477;-72
2021/11/13 12:11:37;;;;;;;0.90;0.10;;;;;;;;;;5011762;28;20037;-71
2021/11/13 12:14:23;;;;;;;2.40;0.20;;;;;;;;;;5011567;28;20037;-71
2021/11/13 12:16:49;;;;;;;2.72;0.20;;;;;;;;;;5012008;28;20125;-72
2021/11/13 12:19:16;;;;;;;2.80;0.17;;;;;;;;;;5011806;28;20038;-70
2021/11/13 12:21:53;;;;;;;1.85;0.95;;;;;;;;;;5011920;28;20497;-73
2021/11/13 12:24:19;;;;;;;0.50;0.10;;;;;;;;;;5011857;28;20112;-71
2021/11/13 12:27:06;;;;;;;1.65;0.20;;;;;;;;;;5031745;28;20036;-72
2021/11/13 12:29:55;;;;;;;1.35;0.20;;;;;;;;;;5033628;28;20021;-72
2021/11/13 12:32:29;;;;;;;1.95;0.20;;;;;;;;;;5033496;28;20018;-72
2021/11/13 12:34:55;;;;;;;0.88;0.17;;;;;;;;;;5035055;28;20040;-72
2021/11/13 12:37:36;;;;;;;0.75;0.00;;;;;;;;;;5033930;28;20104;-71
2021/11/13 12:40:03;;;;;;;2.53;0.20;;;;;;;;;;5033389;28;20088;-72
2021/11/13 12:42:30;;;;;;;0.50;0.10;;;;;;;;;;5034652;28;20068;-70
2021/11/13 12:45:24;;;;;;;1.45;0.17;;;;;;;;;;5037051;28;20024;-73
2021/11/13 12:48:06;;;;;;;0.75;0.20;;;;;;;;;;4975946;28;20050;-71
2021/11/13 12:50:46;;;;;;;0.60;0.13;;;;;;;;;;4976064;28;20053;-72
2021/11/13 12:53:14;;;;;;;0.90;0.25;;;;;;;;;;4975878;28;20138;-71
2021/11/13 12:55:48;;;;;;;0.95;0.10;;;;;;;;;;4976145;28;20027;-72
2021/11/13 12:58:14;;;;;;;0.80;0.10;;;;;;;;;;4975894;28;20031;-72
2021/11/13 13:00:43;;;;;;;2.28;0.10;;;;;;;;;;4959518;28;20573;-71
2021/11/13 13:03:14;;;;;;;2.30;0.20;;;;;;;;;;4975909;28;20034;-73
2021/11/13 13:05:42;;;;;;;1.33;0.20;;;;;;;;;;4959857;28;20035;-71
2021/11/13 13:08:07;;;;;;;1.92;0.20;;;;;;;;;;4975534;28;20062;-72
2021/11/13 13:10:33;;;;;;;1.92;0.30;;;;;;;;;;4975557;28;20610;-72
2021/11/13 13:13:17;;;;;;;1.45;0.25;;;;;;;;;;4975458;28;20019;-70
2021/11/13 13:15:57;;;;;;;0.32;0.08;;;;;;;;;;4975625;28;20019;-72
2021/11/13 13:18:28;;;;;;;2.55;0.20;;;;;;;;;;4975738;28;20418;-71
2021/11/13 13:20:55;;;;;;;1.35;0.55;;;;;;;;;;4975323;28;20054;-72
2021/11/13 13:23:23;;;;;;;1.45;0.32;;;;;;;;;;4975445;28;20031;-71
2021/11/13 13:25:50;;;;;;;0.80;0.20;;;;;;;;;;5036338;28;20024;-71
2021/11/13 13:28:22;;;;;;;0.75;0.20;;;;;;;;;;5036223;28;20032;-72
2021/11/13 13:30:49;;;;;;;0.75;0.15;;;;;;;;;;5036022;28;20372;-70
2021/11/13 13:33:15;;;;;;;1.63;0.20;;;;;;;;;;5036081;28;20461;-71
2021/11/13 13:36:10;;;;;;;2.55;0.45;;;;;;;;;;5034986;28;20021;-72
2021/11/13 13:38:50;;;;;;;1.23;0.30;;;;;;;;;;4975048;28;20081;-70
2021/11/13 13:41:17;;;;;;;1.98;0.32;;;;;;;;;;4975177;28;20065;-71
2021/11/13 13:43:51;;;;;;;5.00;0.45;;;;;;;;;;4975010;28;20031;-69
2021/11/13 13:46:19;;;;;;;2.33;1.00;;;;;;;;;;4975052;28;20046;-72
2021/11/13 13:48:45;;;;;;;2.40;0.10;;;;;;;;;;4958628;28;20084;-71
2021/11/13 13:51:16;;;;;;;2.33;0.40;;;;;;;;;;4974818;28;20030;-71
2021/11/13 13:53:53;;;;;;;2.67;0.25;;;;;;;;;;4974065;28;20045;-72
2021/11/13 13:56:24;;;;;;;0.80;0.63;;;;;;;;;;4974928;28;20042;-70
2021/11/13 13:58:59;;;;;;;1.48;0.43;;;;;;;;;;4974875;28;20023;-73
2021/11/13 14:01:34;;;;;;;1.55;0.30;;;;;;;;;;4974581;28;20038;-70
2021/11/13 14:04:05;;;;;;;0.82;0.05;;;;;;;;;;4974719;28;20491;-72
2021/11/13 14:06:35;;;;;;;1.35;0.30;;;;;;;;;;4974610;28;20069;-71
2021/11/13 14:09:02;;;;;;;2.15;0.40;;;;;;;;;;4974483;28;20132;-70
2021/11/13 14:11:29;;;;;;;2.85;0.60;;;;;;;;;;4974410;28;20529;-72
2021/11/13 14:14:05;;;;;;;3.30;0.32;;;;;;;;;;4977944;28;20074;-70
2021/11/13 14:16:34;;;;;;;0.65;0.10;;;;;;;;;;5035263;28;20067;-72
2021/11/13 14:19:13;;;;;;;1.60;0.50;;;;;;;;;;5035225;28;20039;-72
2021/11/13 14:21:40;;;;;;;0.00;0.00;;;;;;;;;;5035130;28;20024;-70
2021/11/13 14:24:23;;;;;;;1.17;0.28;;;;;;;;;;5035123;28;20040;-72
2021/11/13 14:27:08;;;;;;;1.20;0.17;;;;;;;;;;5034903;28;20029;-70
2021/11/13 14:29:43;;;;;;;0.80;0.03;;;;;;;;;;5035256;28;20025;-72
2021/11/13 14:32:09;;;;;;;;;;;;;;;;;;5035468;28;20030;-70
2021/11/13 14:34:52;;;;;;;1.98;0.47;;;;;;;;;;5034947;28;19932;-71
2021/11/13 14:37:18;;;;;;;2.25;0.20;;;;;;;;;;5034914;28;20025;-70
2021/11/13 14:39:46;;;;;;;1.58;0.30;;;;;;;;;;5034771;28;20372;-71
2021/11/13 14:42:17;;;;;;;0.52;0.10;;;;;;;;;;5034786;28;20040;-72
2021/11/13 14:44:47;;;;;;;1.75;0.30;;;;;;;;;;5034647;28;20372;-70
2021/11/13 14:47:16;;;;;;;0.80;0.20;;;;;;;;;;5034680;28;20022;-72
2021/11/13 14:50:00;;;;;;;2.53;0.45;;;;;;;;;;5034627;28;20399;-71
2021/11/13 14:53:03;;;;;;;2.30;0.30;;;;;;;;;;5034505;28;20583;-72
2021/11/13 14:55:29;;;;;;;2.50;0.50;;;;;;;;;;4973861;28;20146;-69
2021/11/13 14:58:14;;;;;;;1.05;0.20;;;;;;;;;;4973100;28;20034;-71
2021/11/13 15:00:42;;;;;;;1.02;0.10;;;;;;;;;;4973849;28;20030;-70
2021/11/13 15:03:16;;;;;;;0.93;0.38;;;;;;;;;;4973760;28;20058;-71
2021/11/13 15:05:43;;;;;;;0.85;0.20;;;;;;;;;;4973639;28;20486;-71
2021/11/13 15:08:15;;;;;;;1.35;0.10;;;;;;;;;;4973205;28;20234;-70
2021/11/13 15:10:41;;;;;;;2.28;0.20;;;;;;;;;;4973320;28;20541;-71
2021/11/13 15:13:15;;;;;;;1.67;0.50;;;;;;;;;;4973502;28;20405;-71
2021/11/13 15:15:55;;;;;;;1.88;0.17;;;;;;;;;;4973583;28;20190;-71
2021/11/13 15:18:38;;;;;;;3.03;0.60;;;;;;;;;;4973511;28;20585;-71
2021/11/13 15:21:05;;;;;;;3.38;0.32;;;;;;;;;;4973513;28;20101;-72
2021/11/13 15:23:31;;;;;;;2.05;0.17;;;;;;;;;;4973274;28;20035;-72
2021/11/13 15:25:57;;;;;;;2.22;0.55;;;;;;;;;;4973117;28;20034;-70
2021/11/13 15:28:23;;;;;;;3.22;0.60;;;;;;;;;;4975816;28;20049;-72
2021/11/13 15:30:48;;;;;;;2.90;0.15;;;;;;;;;;5014201;28;20018;-72
2021/11/13 15:33:15;;;;;;;1.85;0.20;;;;;;;;;;5014309;28;20026;-70
2021/11/13 15:35:50;;;;;;;1.48;0.52;;;;;;;;;;5014248;28;20010;-71
2021/11/13 15:38:17;;;;;;;1.63;0.10;;;;;;;;;;5014196;28;20026;-70
2021/11/13 15:40:44;;;;;;;1.15;0.20;;;;;;;;;;5014114;28;20536;-71
2021/11/13 15:43:16;;;;;;;1.60;0.20;;;;;;;;;;5014133;28;20018;-72
2021/11/13 15:45:50;;;;;;;3.55;0.40;;;;;;;;;;5013927;28;20030;-70
2021/11/13 15:48:16;;;;;;;0.52;0.20;;;;;;;;;;5014164;28;20026;-71
2021/11/13 15:50:55;;;;;;;0.65;0.13;;;;;;;;;;5014030;28;20092;-71